Time;durP1;ratioP1;P1;durP2;ratioP2;P2;SDS_P1;SDS_P2;PMS_P1;PMS_P2;Temp;Humidity;BMP_temperature;BMP_pressure;BME280_temperature;BME280_humidity;BME280_pressure;Samples;Min_cycle;Max_cycle;Signal;HPM_P1;HPM_P2
2022/01/10 00:00:33;;;;;;;53.40;23.77;;;-0.10;99.90;;;;;;5040566;28;20208;-65
2022/01/10 00:03:05;;;;;;;54.67;23.47;;;-0.10;99.90;;;;;;5046871;28;20220;-64
2022/01/10 00:05:34;;;;;;;48.67;22.70;;;-0.20;99.90;;;;;;5038818;28;20710;-66
2022/01/10 00:08:04;;;;;;;61.07;24.30;;;-0.20;99.90;;;;;;5039575;28;20236;-65
2022/01/10 00:10:35;;;;;;;51.80;23.10;;;-0.20;99.90;;;;;;5047696;28;20200;-65
2022/01/10 00:13:03;;;;;;;52.00;24.17;;;-0.20;99.90;;;;;;5044563;28;20185;-65
2022/01/10 00:15:32;;;;;;;44.70;22.87;;;-0.30;99.90;;;;;;5040084;28;20208;-65
2022/01/10 00:18:00;;;;;;;116.20;42.53;;;-0.20;99.90;;;;;;5040893;28;20599;-65
2022/01/10 00:20:28;;;;;;;191.43;62.37;;;-0.20;99.90;;;;;;5043201;28;20227;-65
2022/01/10 00:22:57;;;;;;;88.77;35.17;;;-0.20;99.90;;;;;;5046086;28;20742;-65
2022/01/10 00:25:25;;;;;;;65.43;26.07;;;-0.20;99.90;;;;;;5045267;28;20304;-65
2022/01/10 00:27:56;;;;;;;55.13;24.00;;;-0.30;99.90;;;;;;5039686;28;20205;-65
2022/01/10 00:30:25;;;;;;;62.50;26.13;;;-0.30;99.90;;;;;;5046330;28;20315;-65
2022/01/10 00:32:54;;;;;;;56.93;23.93;;;-0.30;99.90;;;;;;5045698;28;20196;-65
2022/01/10 00:35:23;;;;;;;47.83;22.83;;;-0.40;99.90;;;;;;5038440;28;20270;-65
2022/01/10 00:37:51;;;;;;;59.63;24.07;;;-0.40;99.90;;;;;;5042204;28;20303;-65
2022/01/10 00:40:21;;;;;;;48.27;23.00;;;-0.40;99.90;;;;;;5044155;28;20203;-65
2022/01/10 00:42:55;;;;;;;45.80;22.97;;;-0.50;99.90;;;;;;5045745;28;20221;-65
2022/01/10 00:45:27;;;;;;;50.57;23.47;;;-0.50;99.90;;;;;;5046903;28;20197;-65
2022/01/10 00:47:57;;;;;;;59.30;24.23;;;-0.60;99.90;;;;;;5044764;28;20239;-65
2022/01/10 00:50:27;;;;;;;48.13;24.00;;;-0.50;99.90;;;;;;5042063;28;20220;-65
2022/01/10 00:52:57;;;;;;;51.87;23.70;;;-0.50;99.90;;;;;;5050406;28;20449;-65
2022/01/10 00:55:25;;;;;;;54.67;23.73;;;-0.50;99.90;;;;;;5045623;28;20207;-65
2022/01/10 00:57:54;;;;;;;60.23;24.73;;;-0.50;99.90;;;;;;5045131;28;20204;-65
2022/01/10 01:00:24;;;;;;;48.93;23.87;;;-0.40;99.90;;;;;;5044020;28;20267;-65
2022/01/10 01:03:11;;;;;;;57.83;23.70;;;-0.40;99.90;;;;;;5050669;28;20217;-65
2022/01/10 01:05:42;;;;;;;46.13;22.97;;;-0.40;99.90;;;;;;5046975;28;20606;-65
2022/01/10 01:08:11;;;;;;;48.97;23.07;;;-0.50;99.90;;;;;;5050004;28;20211;-65
2022/01/10 01:11:14;;;;;;;59.63;24.33;;;-0.50;99.90;;;;;;5042977;28;20717;-65
2022/01/10 01:13:54;;;;;;;53.60;23.33;;;-0.60;99.90;;;;;;5043395;28;20235;-65
2022/01/10 01:16:43;;;;;;;49.40;22.33;;;-0.70;99.90;;;;;;5049231;28;20196;-65
2022/01/10 01:20:01;;;;;;;44.17;22.93;;;-0.80;99.90;;;;;;5047429;28;20197;-65
2022/01/10 01:25:05;;;;;;;54.73;23.80;;;-0.90;99.90;;;;;;5046829;28;20225;-65
2022/01/10 01:27:33;;;;;;;50.30;22.20;;;-0.90;99.90;;;;;;5047545;28;20208;-65
2022/01/10 01:30:02;;;;;;;47.20;21.87;;;-0.90;99.90;;;;;;5045584;28;20659;-65
2022/01/10 01:32:32;;;;;;;46.27;22.23;;;-0.90;99.90;;;;;;5048883;28;20192;-65
2022/01/10 01:35:05;;;;;;;52.93;23.03;;;-0.90;99.90;;;;;;5046954;28;20279;-65
2022/01/10 01:37:35;;;;;;;47.53;21.70;;;-1.00;99.90;;;;;;5040174;28;20197;-65
2022/01/10 01:40:05;;;;;;;58.33;23.97;;;-0.80;99.90;;;;;;5035841;28;20197;-66
2022/01/10 01:42:37;;;;;;;57.40;24.40;;;-0.50;99.90;;;;;;5049013;28;20299;-65
2022/01/10 01:45:07;;;;;;;58.47;26.30;;;-0.40;99.90;;;;;;5047954;28;20213;-65
2022/01/10 01:47:37;;;;;;;57.27;25.33;;;-0.40;99.90;;;;;;5028623;28;20711;-65
2022/01/10 01:50:08;;;;;;;50.43;24.30;;;-0.50;99.90;;;;;;5047231;28;20201;-64
2022/01/10 01:52:37;;;;;;;66.13;25.13;;;-0.60;99.90;;;;;;5044198;28;20255;-65
2022/01/10 01:55:07;;;;;;;50.23;24.37;;;-0.80;99.90;;;;;;5045306;28;20262;-65
2022/01/10 01:57:37;;;;;;;48.77;24.17;;;-0.90;99.90;;;;;;5040872;28;20223;-65
2022/01/10 02:00:08;;;;;;;43.53;22.33;;;-0.90;99.90;;;;;;5044423;28;20288;-64
2022/01/10 02:02:38;;;;;;;62.77;24.97;;;-1.00;99.90;;;;;;5039092;28;20211;-65
2022/01/10 02:05:07;;;;;;;67.63;26.10;;;-1.00;99.90;;;;;;5040328;28;20279;-65
2022/01/10 02:07:36;;;;;;;59.23;25.53;;;-0.90;99.90;;;;;;5043993;28;20254;-65
2022/01/10 02:10:05;;;;;;;61.00;25.53;;;-0.80;99.90;;;;;;5045629;28;20896;-65
2022/01/10 02:12:33;;;;;;;55.20;25.30;;;-0.70;99.90;;;;;;5043145;28;20193;-66
2022/01/10 02:15:02;;;;;;;56.17;25.10;;;-0.70;99.90;;;;;;5048402;28;20231;-66
2022/01/10 02:17:36;;;;;;;52.33;25.97;;;-0.60;99.90;;;;;;5045962;28;20208;-66
2022/01/10 02:20:08;;;;;;;50.37;24.53;;;-0.60;99.90;;;;;;5022581;28;20233;-66
2022/01/10 02:22:39;;;;;;;56.73;24.57;;;-0.60;99.90;;;;;;5047347;28;20239;-66
2022/01/10 02:25:08;;;;;;;57.13;24.73;;;-0.50;99.90;;;;;;5043703;28;20224;-65
2022/01/10 02:27:37;;;;;;;53.93;25.73;;;-0.40;99.90;;;;;;5045214;28;20288;-66
2022/01/10 02:30:06;;;;;;;53.80;24.83;;;-0.40;99.90;;;;;;5045293;28;20200;-65
2022/01/10 02:32:35;;;;;;;60.60;25.40;;;-0.40;99.90;;;;;;5048611;28;20192;-66
2022/01/10 02:35:06;;;;;;;50.43;25.70;;;-0.40;99.90;;;;;;5042616;28;20346;-66
2022/01/10 02:37:36;;;;;;;52.73;25.03;;;-0.50;99.90;;;;;;5031523;28;20691;-66
2022/01/10 02:40:08;;;;;;;54.23;25.17;;;-0.50;99.90;;;;;;5045514;28;20571;-66
2022/01/10 02:42:37;;;;;;;49.33;23.77;;;-0.40;99.90;;;;;;5046358;28;20232;-66
2022/01/10 02:45:06;;;;;;;53.97;25.90;;;-0.30;99.90;;;;;;5045336;28;20276;-66
2022/01/10 02:47:34;;;;;;;53.07;25.60;;;-0.40;99.90;;;;;;5045455;28;20271;-66
2022/01/10 02:50:04;;;;;;;54.23;26.37;;;-0.40;99.90;;;;;;5045733;28;20197;-65
2022/01/10 02:52:35;;;;;;;55.77;25.97;;;-0.50;99.90;;;;;;5059455;28;20243;-66
2022/01/10 02:55:04;;;;;;;54.63;25.53;;;-0.60;99.90;;;;;;5043854;28;20208;-66
2022/01/10 02:57:34;;;;;;;63.73;26.03;;;-0.70;99.90;;;;;;5056814;28;20200;-66
2022/01/10 03:00:07;;;;;;;60.20;26.37;;;-0.80;99.90;;;;;;5044629;28;20627;-66
2022/01/10 03:02:36;;;;;;;60.83;26.40;;;-0.90;99.90;;;;;;5038918;28;20188;-66
2022/01/10 03:05:06;;;;;;;58.83;26.80;;;-0.80;99.90;;;;;;5042348;28;20190;-66
2022/01/10 03:07:37;;;;;;;58.87;27.60;;;-0.70;99.90;;;;;;5043317;28;20193;-66
2022/01/10 03:10:07;;;;;;;57.17;25.50;;;-0.70;99.90;;;;;;5041961;28;20200;-66
2022/01/10 03:12:36;;;;;;;46.87;23.67;;;-0.80;99.90;;;;;;5041226;28;20193;-66
2022/01/10 03:15:08;;;;;;;46.43;23.67;;;-1.00;99.90;;;;;;5044287;28;20216;-66
2022/01/10 03:17:38;;;;;;;51.23;24.20;;;-1.10;99.90;;;;;;5023862;28;20196;-66
2022/01/10 03:20:09;;;;;;;55.40;25.27;;;-1.00;99.90;;;;;;5043866;28;20220;-66
2022/01/10 03:22:39;;;;;;;58.20;23.43;;;-1.00;99.90;;;;;;5046890;28;20220;-66
2022/01/10 03:25:09;;;;;;;52.70;25.23;;;-1.00;99.90;;;;;;5043983;28;20723;-66
2022/01/10 03:27:38;;;;;;;54.23;25.33;;;-0.80;99.90;;;;;;5024761;28;20228;-66
2022/01/10 03:30:07;;;;;;;67.30;28.93;;;-0.80;99.90;;;;;;5041845;28;20201;-66
2022/01/10 03:32:36;;;;;;;62.47;28.50;;;-0.70;99.90;;;;;;5023108;28;20197;-66
2022/01/10 03:35:04;;;;;;;59.20;26.70;;;-0.70;99.90;;;;;;5039361;28;20782;-66
2022/01/10 03:37:33;;;;;;;62.60;26.33;;;-0.70;99.90;;;;;;5041614;28;20243;-66
2022/01/10 03:40:05;;;;;;;56.70;25.87;;;-0.80;99.90;;;;;;5040644;28;20251;-66
2022/01/10 03:42:33;;;;;;;59.17;25.80;;;-0.80;99.90;;;;;;5047170;28;20204;-66
2022/01/10 03:45:03;;;;;;;56.90;25.70;;;-0.90;99.90;;;;;;5045340;28;20219;-66
2022/01/10 03:47:31;;;;;;;54.20;26.83;;;-0.90;99.90;;;;;;5059119;28;20227;-66
2022/01/10 03:50:00;;;;;;;65.63;28.27;;;-0.80;99.90;;;;;;5046970;28;20192;-66
2022/01/10 03:52:28;;;;;;;60.77;29.00;;;-0.60;99.90;;;;;;5047337;28;20231;-66
2022/01/10 03:54:56;;;;;;;60.10;28.17;;;-0.60;99.90;;;;;;5043033;28;20193;-66
2022/01/10 03:57:26;;;;;;;76.53;30.50;;;-0.70;99.90;;;;;;5037762;28;20197;-66
2022/01/10 03:59:55;;;;;;;75.10;32.30;;;-0.60;99.90;;;;;;5044249;28;20254;-66
2022/01/10 04:02:25;;;;;;;74.43;31.10;;;-0.70;99.90;;;;;;5045753;28;20216;-65
2022/01/10 04:04:54;;;;;;;64.57;30.03;;;-0.80;99.90;;;;;;5039349;28;20687;-67
2022/01/10 04:07:22;;;;;;;77.23;34.10;;;-0.80;99.90;;;;;;5022002;28;20567;-66
2022/01/10 04:09:51;;;;;;;88.10;36.83;;;-0.80;99.90;;;;;;5044761;28;20196;-66
2022/01/10 04:12:21;;;;;;;74.93;35.10;;;-0.80;99.90;;;;;;5044457;28;20277;-66
2022/01/10 04:14:51;;;;;;;72.00;34.30;;;-0.70;99.90;;;;;;5043084;28;20189;-66
2022/01/10 04:17:19;;;;;;;76.47;34.90;;;-0.80;99.90;;;;;;5042812;28;20271;-66
2022/01/10 04:19:48;;;;;;;76.97;34.37;;;-0.90;99.90;;;;;;5042427;28;20193;-66
2022/01/10 04:22:16;;;;;;;73.40;34.80;;;-0.80;99.90;;;;;;5044391;28;20598;-66
2022/01/10 04:24:45;;;;;;;73.90;32.90;;;-0.70;99.90;;;;;;5036485;28;20220;-66
2022/01/10 04:27:14;;;;;;;68.50;31.80;;;-0.70;99.90;;;;;;5045933;28;20193;-66
2022/01/10 04:29:42;;;;;;;68.40;31.80;;;-0.70;99.90;;;;;;5044619;28;20751;-66
2022/01/10 04:32:13;;;;;;;71.33;32.77;;;-0.80;99.90;;;;;;5042139;28;20655;-66
2022/01/10 04:34:43;;;;;;;73.20;31.40;;;-0.70;99.90;;;;;;5044354;28;21007;-66
2022/01/10 04:37:12;;;;;;;72.17;29.23;;;-0.70;99.90;;;;;;5039487;28;20627;-66
2022/01/10 04:39:40;;;;;;;60.10;28.93;;;-0.60;99.90;;;;;;5022446;28;20275;-66
2022/01/10 04:42:11;;;;;;;61.57;29.70;;;-0.70;99.90;;;;;;5042826;28;20216;-66
2022/01/10 04:44:40;;;;;;;64.37;28.80;;;-0.70;99.90;;;;;;5041255;28;20208;-66
2022/01/10 04:47:08;;;;;;;56.63;28.50;;;-0.70;99.90;;;;;;5040561;28;20189;-66
2022/01/10 04:50:00;;;;;;;60.03;28.60;;;-0.70;99.90;;;;;;5042012;28;20724;-66
2022/01/10 04:52:28;;;;;;;57.73;27.50;;;-0.60;99.90;;;;;;5042486;28;20192;-66
2022/01/10 04:54:56;;;;;;;66.23;30.47;;;-0.50;99.90;;;;;;5045143;28;20239;-66
2022/01/10 04:57:25;;;;;;;59.63;28.47;;;-0.60;99.90;;;;;;5041613;28;20208;-65
2022/01/10 04:59:54;;;;;;;60.10;28.63;;;-0.60;99.90;;;;;;5041051;28;20741;-64
2022/01/10 05:02:22;;;;;;;63.90;28.43;;;-0.60;99.90;;;;;;5024765;28;20572;-65
2022/01/10 05:04:52;;;;;;;62.13;27.87;;;-0.60;99.90;;;;;;5042819;28;20288;-65
2022/01/10 05:07:21;;;;;;;60.60;26.77;;;-0.60;99.90;;;;;;5044958;28;20192;-65
2022/01/10 05:09:49;;;;;;;56.43;26.83;;;-0.50;99.90;;;;;;5041582;28;20735;-65
2022/01/10 05:12:20;;;;;;;60.67;26.97;;;-0.50;99.90;;;;;;5044728;28;20271;-64
2022/01/10 05:14:48;;;;;;;56.83;28.20;;;-0.40;99.90;;;;;;5045086;28;20201;-65
2022/01/10 05:17:18;;;;;;;58.63;26.33;;;-0.40;99.90;;;;;;5044225;28;20683;-64
2022/01/10 05:19:47;;;;;;;56.80;27.03;;;-0.50;99.90;;;;;;5039245;28;20204;-64
2022/01/10 05:22:18;;;;;;;55.33;26.37;;;-0.50;99.90;;;;;;5042908;28;20547;-65
2022/01/10 05:24:46;;;;;;;68.03;28.17;;;-0.60;99.90;;;;;;5040846;28;20767;-64
2022/01/10 05:27:15;;;;;;;64.00;28.47;;;-0.70;99.90;;;;;;5043805;28;20255;-65
2022/01/10 05:29:43;;;;;;;59.80;27.53;;;-0.80;99.90;;;;;;5042743;28;20730;-65
2022/01/10 05:32:13;;;;;;;57.53;27.37;;;-0.70;99.90;;;;;;5042044;28;20280;-64
2022/01/10 05:34:41;;;;;;;71.13;29.40;;;-0.60;99.90;;;;;;5044439;28;20272;-65
2022/01/10 05:37:10;;;;;;;74.10;31.33;;;-0.60;99.90;;;;;;5044191;28;20678;-64
2022/01/10 05:39:40;;;;;;;65.57;29.93;;;-0.60;99.90;;;;;;5043553;28;20761;-65
2022/01/10 05:42:09;;;;;;;74.17;29.47;;;-0.60;99.90;;;;;;5047799;28;20683;-65
2022/01/10 05:44:38;;;;;;;82.90;31.17;;;-0.70;99.90;;;;;;5045478;28;20218;-65
2022/01/10 05:47:06;;;;;;;76.80;29.50;;;-0.70;99.90;;;;;;5044588;28;20746;-65
2022/01/10 05:49:37;;;;;;;83.23;28.47;;;-0.60;99.90;;;;;;5044937;28;20234;-65
2022/01/10 05:52:06;;;;;;;71.63;30.70;;;-0.50;99.90;;;;;;5046080;28;20652;-65
2022/01/10 05:54:35;;;;;;;137.77;33.67;;;-0.40;99.90;;;;;;5043020;28;20188;-65
2022/01/10 05:57:06;;;;;;;107.83;30.93;;;-0.40;99.90;;;;;;5043858;28;20547;-64
2022/01/10 05:59:34;;;;;;;92.50;30.83;;;-0.40;99.90;;;;;;5044844;28;20197;-64
2022/01/10 06:02:04;;;;;;;121.57;33.57;;;-0.40;99.90;;;;;;5041612;28;21166;-64
2022/01/10 06:04:32;;;;;;;96.50;30.20;;;-0.40;99.90;;;;;;5046455;28;20215;-64
2022/01/10 06:07:01;;;;;;;77.93;29.03;;;-0.40;99.90;;;;;;5042731;28;20204;-65
2022/01/10 06:09:30;;;;;;;98.83;27.77;;;-0.40;99.90;;;;;;5045849;28;20217;-65
2022/01/10 06:11:58;;;;;;;68.93;27.37;;;-0.40;99.90;;;;;;5037092;28;20218;-65
2022/01/10 06:14:28;;;;;;;78.10;25.93;;;-0.50;99.90;;;;;;5049047;28;20208;-64
2022/01/10 06:16:57;;;;;;;73.43;24.70;;;-0.50;99.90;;;;;;5046824;28;20747;-65
2022/01/10 06:19:25;;;;;;;60.80;22.73;;;-0.50;99.90;;;;;;5029592;28;20874;-65
2022/01/10 06:21:53;;;;;;;61.57;24.03;;;-0.50;99.90;;;;;;5044014;28;20197;-65
2022/01/10 06:24:22;;;;;;;76.57;25.13;;;-0.50;99.90;;;;;;5042937;28;20203;-64
2022/01/10 06:26:50;;;;;;;81.97;26.27;;;-0.50;99.90;;;;;;5047030;28;20684;-64
2022/01/10 06:29:19;;;;;;;63.33;24.87;;;-0.50;99.90;;;;;;5043776;28;20726;-65
2022/01/10 06:31:49;;;;;;;88.17;25.60;;;-0.50;99.90;;;;;;5041634;28;20189;-65
2022/01/10 06:34:18;;;;;;;49.07;22.03;;;-0.60;99.90;;;;;;5038495;28;20703;-65
2022/01/10 06:36:47;;;;;;;65.43;22.97;;;-0.60;99.90;;;;;;5037051;28;20721;-64
2022/01/10 06:39:16;;;;;;;52.67;21.23;;;-0.50;99.90;;;;;;5043630;28;20200;-65
2022/01/10 06:41:45;;;;;;;68.10;22.27;;;-0.60;99.90;;;;;;5027240;28;20195;-65
2022/01/10 06:44:14;;;;;;;115.93;23.10;;;-0.70;99.90;;;;;;5064415;28;20204;-64
2022/01/10 06:46:42;;;;;;;60.23;19.77;;;-0.80;99.90;;;;;;5041460;28;20714;-65
2022/01/10 06:49:12;;;;;;;61.70;19.33;;;-0.90;99.90;;;;;;5044492;28;20225;-64
2022/01/10 06:51:42;;;;;;;72.13;18.63;;;-0.80;99.90;;;;;;5044958;28;20337;-65
2022/01/10 06:54:10;;;;;;;74.63;20.67;;;-0.80;99.90;;;;;;5042815;28;20201;-64
2022/01/10 06:56:38;;;;;;;42.57;19.63;;;-0.80;99.90;;;;;;5037831;28;20188;-65
2022/01/10 06:59:07;;;;;;;58.17;17.17;;;-0.90;99.90;;;;;;5041208;28;20683;-65
2022/01/10 07:01:37;;;;;;;56.70;17.80;;;-0.90;99.90;;;;;;5046212;28;20785;-65
2022/01/10 07:04:07;;;;;;;52.10;17.67;;;-0.90;99.90;;;;;;5042841;28;20196;-65
2022/01/10 07:06:38;;;;;;;54.43;16.43;;;-0.90;99.90;;;;;;5040737;28;20224;-65
2022/01/10 07:09:06;;;;;;;43.37;15.10;;;-0.90;99.90;;;;;;5045143;28;20778;-65
2022/01/10 07:11:35;;;;;;;75.10;16.70;;;-0.90;99.90;;;;;;5044811;28;20212;-65
2022/01/10 07:14:05;;;;;;;41.47;14.27;;;-0.90;99.90;;;;;;5042101;28;20196;-65
2022/01/10 07:16:34;;;;;;;63.80;15.53;;;-0.90;99.90;;;;;;5044196;28;20209;-65
2022/01/10 07:19:03;;;;;;;76.20;19.13;;;-0.90;99.90;;;;;;5045245;28;20895;-65
2022/01/10 07:21:32;;;;;;;43.63;15.03;;;-0.90;99.90;;;;;;5045214;28;20227;-65
2022/01/10 07:24:02;;;;;;;51.20;15.27;;;-0.90;99.90;;;;;;5044255;28;20258;-65
2022/01/10 07:26:32;;;;;;;58.57;14.83;;;-0.90;99.90;;;;;;5044005;28;20307;-65
2022/01/10 07:29:00;;;;;;;64.87;15.27;;;-0.90;99.90;;;;;;5038109;28;20193;-65
2022/01/10 07:31:29;;;;;;;43.17;14.03;;;-1.00;99.90;;;;;;5046947;28;20230;-65
2022/01/10 07:33:58;;;;;;;83.70;16.27;;;-1.00;99.90;;;;;;5043012;28;20675;-65
2022/01/10 07:36:27;;;;;;;58.53;15.10;;;-1.00;99.90;;;;;;5043122;28;20224;-65
2022/01/10 07:38:55;;;;;;;39.03;14.13;;;-1.00;99.90;;;;;;5038118;28;20199;-65
2022/01/10 07:41:25;;;;;;;40.73;14.27;;;-1.00;99.90;;;;;;5055123;28;20200;-64
2022/01/10 07:43:56;;;;;;;46.93;14.87;;;-1.00;99.90;;;;;;5040336;28;20211;-65
2022/01/10 07:46:25;;;;;;;55.20;15.37;;;-1.00;99.90;;;;;;5034435;28;20306;-65
2022/01/10 07:48:54;;;;;;;45.47;14.67;;;-0.90;99.90;;;;;;5025570;28;20205;-65
2022/01/10 07:51:24;;;;;;;72.13;19.70;;;-0.90;99.90;;;;;;5039589;28;20204;-65
2022/01/10 07:53:52;;;;;;;62.17;16.13;;;-0.80;99.90;;;;;;5024099;28;20220;-65
2022/01/10 07:56:21;;;;;;;53.93;16.00;;;-0.80;99.90;;;;;;5039021;28;20216;-65
2022/01/10 07:58:52;;;;;;;47.13;15.10;;;-0.80;99.90;;;;;;5020599;28;20197;-65
2022/01/10 08:01:21;;;;;;;72.87;15.13;;;-0.80;99.90;;;;;;5040346;28;20603;-65
2022/01/10 08:03:52;;;;;;;111.00;18.43;;;-0.80;99.90;;;;;;5040316;28;20279;-65
2022/01/10 08:06:21;;;;;;;85.97;16.87;;;-0.70;99.90;;;;;;5043291;28;20299;-65
2022/01/10 08:08:50;;;;;;;48.80;15.60;;;-0.80;99.90;;;;;;5022530;28;20239;-65
2022/01/10 08:11:19;;;;;;;108.07;19.77;;;-0.80;99.90;;;;;;5040308;28;20267;-66
2022/01/10 08:13:48;;;;;;;52.10;16.23;;;-0.70;99.90;;;;;;5015762;28;20276;-65
2022/01/10 08:16:17;;;;;;;81.87;17.90;;;-0.70;99.90;;;;;;5037714;28;20259;-65
2022/01/10 08:18:46;;;;;;;70.43;16.20;;;-0.70;99.90;;;;;;5043570;28;20254;-65
2022/01/10 08:21:15;;;;;;;58.03;15.77;;;-0.60;99.90;;;;;;5024777;28;20211;-65
2022/01/10 08:23:43;;;;;;;85.33;15.37;;;-0.60;99.90;;;;;;5037193;28;20201;-65
2022/01/10 08:26:12;;;;;;;67.67;15.23;;;-0.60;99.90;;;;;;5037598;28;20215;-65
2022/01/10 08:28:41;;;;;;;57.70;21.87;;;-0.60;99.90;;;;;;5039289;28;20192;-65
2022/01/10 08:31:10;;;;;;;92.70;19.80;;;-0.60;99.90;;;;;;5040764;28;20208;-65
2022/01/10 08:33:41;;;;;;;88.00;21.43;;;-0.60;99.90;;;;;;5038917;28;20197;-65
2022/01/10 08:36:10;;;;;;;118.43;30.40;;;-0.60;99.90;;;;;;5042879;28;20199;-65
2022/01/10 08:38:39;;;;;;;123.17;23.80;;;-0.60;99.90;;;;;;5038520;28;20262;-65
2022/01/10 08:41:07;;;;;;;82.70;16.53;;;-0.50;99.90;;;;;;5038499;28;20212;-65
2022/01/10 08:43:36;;;;;;;67.33;15.37;;;-0.50;99.90;;;;;;5041083;28;20196;-65
2022/01/10 08:46:04;;;;;;;75.00;17.90;;;-0.50;99.90;;;;;;5037130;28;20539;-65
2022/01/10 08:48:52;;;;;;;147.93;19.30;;;-0.50;99.90;;;;;;5036853;28;20188;-65
2022/01/10 08:51:21;;;;;;;102.20;17.30;;;-0.50;99.90;;;;;;5041589;28;20209;-65
2022/01/10 08:53:49;;;;;;;100.13;16.70;;;-0.50;99.90;;;;;;5042750;28;20200;-65
2022/01/10 08:56:18;;;;;;;106.67;16.83;;;-0.40;99.90;;;;;;5043353;28;20196;-65
2022/01/10 08:58:47;;;;;;;163.67;21.13;;;-0.40;99.90;;;;;;5037576;28;20524;-65
2022/01/10 09:01:15;;;;;;;182.03;40.93;;;-0.40;99.90;;;;;;5039079;28;20219;-65
2022/01/10 09:03:44;;;;;;;88.03;25.20;;;-0.40;99.90;;;;;;5041667;28;20193;-65
2022/01/10 09:06:13;;;;;;;84.90;16.60;;;-0.40;99.90;;;;;;5039916;28;20220;-65
2022/01/10 09:08:44;;;;;;;79.40;18.53;;;-0.40;99.90;;;;;;5041478;28;20304;-65
2022/01/10 09:11:13;;;;;;;89.43;16.87;;;-0.30;99.90;;;;;;5032984;28;20212;-65
2022/01/10 09:13:41;;;;;;;133.97;16.80;;;-0.30;99.90;;;;;;5057089;28;20286;-65
2022/01/10 09:16:11;;;;;;;101.30;16.43;;;-0.30;99.90;;;;;;5039516;28;20284;-65
2022/01/10 09:18:40;;;;;;;85.60;14.93;;;-0.30;99.90;;;;;;5046410;28;20220;-65
2022/01/10 09:21:09;;;;;;;71.00;16.47;;;-0.30;99.90;;;;;;5047972;28;20201;-65
2022/01/10 09:23:39;;;;;;;51.93;13.87;;;-0.20;99.90;;;;;;5046118;28;20197;-65
2022/01/10 09:26:08;;;;;;;96.63;22.50;;;-0.30;99.90;;;;;;5040555;28;20243;-65
2022/01/10 09:28:37;;;;;;;68.00;16.40;;;-0.20;99.90;;;;;;5041628;28;20204;-65
2022/01/10 09:31:06;;;;;;;112.37;16.23;;;-0.20;99.90;;;;;;5040570;28;20197;-66
2022/01/10 09:33:35;;;;;;;88.23;14.50;;;-0.10;99.90;;;;;;5044318;28;20280;-66
2022/01/10 09:36:03;;;;;;;155.27;15.67;;;-0.20;99.90;;;;;;5041987;28;20220;-65
2022/01/10 09:38:32;;;;;;;131.93;15.80;;;-0.30;99.90;;;;;;5045190;28;20205;-65
2022/01/10 09:41:02;;;;;;;93.73;16.00;;;-0.40;99.90;;;;;;5042132;28;20200;-65
2022/01/10 09:43:31;;;;;;;111.53;14.37;;;-0.40;99.90;;;;;;5041616;28;20189;-65
2022/01/10 09:45:59;;;;;;;49.17;14.60;;;-0.30;99.90;;;;;;5040434;28;20193;-65
2022/01/10 09:48:28;;;;;;;63.50;12.43;;;-0.30;99.90;;;;;;5044582;28;20215;-65
2022/01/10 09:51:17;;;;;;;105.00;13.40;;;-0.20;99.90;;;;;;5041635;28;20315;-65
2022/01/10 09:53:46;;;;;;;142.63;16.47;;;-0.10;99.90;;;;;;5043538;28;20212;-65
2022/01/10 09:56:16;;;;;;;49.20;11.40;;;-0.30;99.90;;;;;;5040953;28;20199;-65
2022/01/10 09:58:46;;;;;;;65.43;13.83;;;-0.30;99.90;;;;;;5044513;28;20255;-65
2022/01/10 10:01:17;;;;;;;87.53;15.97;;;-0.20;99.90;;;;;;5043464;28;20250;-65
2022/01/10 10:03:48;;;;;;;83.50;11.80;;;-0.20;99.90;;;;;;5045375;28;20262;-66
2022/01/10 10:06:19;;;;;;;88.93;12.30;;;-0.30;99.90;;;;;;5041545;28;20216;-65
2022/01/10 10:08:47;;;;;;;97.30;17.90;;;-0.40;99.90;;;;;;5044859;28;20240;-65
2022/01/10 10:11:17;;;;;;;82.07;14.57;;;-0.30;99.90;;;;;;5043241;28;20200;-65
2022/01/10 10:13:52;;;;;;;59.17;13.33;;;-0.30;99.90;;;;;;5043804;28;20196;-65
2022/01/10 10:16:21;;;;;;;160.67;25.10;;;-0.30;99.90;;;;;;5046627;28;20220;-65
2022/01/10 10:18:50;;;;;;;65.73;16.97;;;-0.20;99.90;;;;;;5047886;28;20197;-65
2022/01/10 10:21:23;;;;;;;102.47;18.37;;;-0.20;99.90;;;;;;5043795;28;20207;-65
2022/01/10 10:23:51;;;;;;;58.17;16.33;;;-0.20;99.90;;;;;;5038694;28;20291;-65
2022/01/10 10:26:25;;;;;;;46.93;13.40;;;-0.10;99.90;;;;;;5044721;28;20205;-66
2022/01/10 10:28:56;;;;;;;122.17;30.83;;;-0.10;99.90;;;;;;5043835;28;20610;-65
2022/01/10 10:31:25;;;;;;;118.57;27.43;;;0.00;99.90;;;;;;5040646;28;20228;-65
2022/01/10 10:33:55;;;;;;;104.20;27.63;;;0.00;99.90;;;;;;5039507;28;20266;-65
2022/01/10 10:36:26;;;;;;;159.90;38.67;;;0.10;99.90;;;;;;5039695;28;20196;-65
2022/01/10 10:38:56;;;;;;;163.67;43.87;;;0.10;99.90;;;;;;5043262;28;20193;-65
2022/01/10 10:41:27;;;;;;;80.27;20.50;;;0.10;99.90;;;;;;5038755;28;20197;-65
2022/01/10 10:43:55;;;;;;;52.20;15.77;;;0.20;99.90;;;;;;5031737;28;20220;-65
2022/01/10 10:46:27;;;;;;;49.30;15.40;;;0.30;99.90;;;;;;5031987;28;21295;-65
2022/01/10 10:49:03;;;;;;;43.17;14.33;;;0.30;99.90;;;;;;5042996;28;20311;-65
2022/01/10 10:51:34;;;;;;;36.83;11.80;;;0.30;99.90;;;;;;5038271;28;20208;-65
2022/01/10 10:54:04;;;;;;;54.67;13.93;;;0.40;99.90;;;;;;5036016;28;20239;-65
2022/01/10 10:56:36;;;;;;;42.00;12.50;;;0.50;99.90;;;;;;5038113;28;20417;-65
2022/01/10 10:59:07;;;;;;;35.13;12.17;;;0.50;99.90;;;;;;5040058;28;20250;-65
2022/01/10 11:01:37;;;;;;;58.63;18.70;;;0.60;99.90;;;;;;5043823;28;20193;-66
2022/01/10 11:04:09;;;;;;;55.13;17.47;;;0.60;99.90;;;;;;5044782;28;20288;-65
2022/01/10 11:06:39;;;;;;;56.73;17.33;;;0.60;99.90;;;;;;5059398;28;20196;-65
2022/01/10 11:09:12;;;;;;;55.47;15.63;;;0.70;99.90;;;;;;5042863;28;20733;-66
2022/01/10 11:11:43;;;;;;;36.53;14.40;;;0.70;99.90;;;;;;5042586;28;20284;-65
2022/01/10 11:14:14;;;;;;;47.73;12.87;;;0.70;99.90;;;;;;5044642;28;20235;-66
2022/01/10 11:16:44;;;;;;;50.40;17.43;;;0.80;99.90;;;;;;5038958;28;20193;-65
2022/01/10 11:19:14;;;;;;;40.57;13.67;;;0.80;99.90;;;;;;5041208;28;20196;-65
2022/01/10 11:21:47;;;;;;;50.73;17.63;;;0.90;99.90;;;;;;5040035;28;20201;-65
2022/01/10 11:24:42;;;;;;;73.07;15.20;;;0.80;99.90;;;;;;5045834;28;20220;-66
2022/01/10 11:27:33;;;;;;;32.43;11.63;;;0.80;99.90;;;;;;5043190;28;20212;-66
2022/01/10 11:30:28;;;;;;;51.83;13.50;;;0.90;99.90;;;;;;5047095;28;20664;-66
2022/01/10 11:33:02;;;;;;;45.97;14.20;;;0.90;99.90;;;;;;5043212;28;20232;-65
2022/01/10 11:35:52;;;;;;;38.37;13.63;;;1.00;99.90;;;;;;5039945;28;20240;-65
2022/01/10 11:38:30;;;;;;;39.57;13.17;;;0.90;99.90;;;;;;5037444;28;20621;-65
2022/01/10 11:41:01;;;;;;;41.27;21.83;;;0.90;99.90;;;;;;5024580;28;20196;-65
2022/01/10 11:43:48;;;;;;;49.67;18.43;;;0.90;99.90;;;;;;5030622;28;20193;-65
2022/01/10 11:46:28;;;;;;;70.50;17.80;;;0.90;99.90;;;;;;5036248;28;21656;-65
2022/01/10 11:49:02;;;;;;;40.97;17.67;;;0.90;99.90;;;;;;5038664;28;20421;-65
2022/01/10 11:51:34;;;;;;;73.67;22.20;;;1.00;99.90;;;;;;5041077;28;20212;-65
2022/01/10 11:54:10;;;;;;;68.87;27.60;;;1.00;99.90;;;;;;5043111;28;20200;-65
2022/01/10 11:56:41;;;;;;;50.10;16.13;;;1.10;99.90;;;;;;5038357;28;20228;-65
2022/01/10 11:59:24;;;;;;;48.33;12.97;;;1.10;99.90;;;;;;5040688;28;20826;-65
2022/01/10 12:01:57;;;;;;;31.57;11.37;;;1.10;99.90;;;;;;5044315;28;20271;-65
2022/01/10 12:04:28;;;;;;;57.00;23.23;;;1.10;99.90;;;;;;5037052;28;20189;-65
2022/01/10 12:06:56;;;;;;;27.60;11.33;;;1.10;99.90;;;;;;5041735;28;20196;-65
2022/01/10 12:09:25;;;;;;;77.73;36.10;;;1.20;99.90;;;;;;5039577;28;20205;-65
2022/01/10 12:11:56;;;;;;;34.57;11.83;;;1.20;99.90;;;;;;5044521;28;20255;-64
2022/01/10 12:14:30;;;;;;;54.50;12.27;;;1.30;99.90;;;;;;5060026;28;20663;-65
2022/01/10 12:17:00;;;;;;;38.27;11.80;;;1.20;99.90;;;;;;5034056;28;20301;-65
2022/01/10 12:19:29;;;;;;;35.80;11.27;;;1.30;99.90;;;;;;5043096;28;20230;-65
2022/01/10 12:21:58;;;;;;;29.00;11.83;;;1.30;99.90;;;;;;5039665;28;20236;-64
2022/01/10 12:24:31;;;;;;;32.50;10.83;;;1.30;99.90;;;;;;5045423;28;20287;-64
2022/01/10 12:27:01;;;;;;;39.80;11.67;;;1.40;99.90;;;;;;5040623;28;20256;-64
2022/01/10 12:29:32;;;;;;;29.90;10.27;;;1.40;99.90;;;;;;5046423;28;20208;-64
2022/01/10 12:32:02;;;;;;;41.57;9.33;;;1.40;99.90;;;;;;5031482;28;20216;-65
2022/01/10 12:34:30;;;;;;;34.17;10.60;;;1.40;99.90;;;;;;5036168;28;20307;-64
2022/01/10 12:36:58;;;;;;;23.90;8.43;;;1.40;99.90;;;;;;5040245;28;20200;-64
2022/01/10 12:39:27;;;;;;;26.50;9.80;;;1.50;99.90;;;;;;5036162;28;20286;-64
2022/01/10 12:41:57;;;;;;;25.77;9.90;;;1.50;99.90;;;;;;5038512;28;20206;-65
2022/01/10 12:44:27;;;;;;;50.67;12.93;;;1.50;99.90;;;;;;5030376;28;20197;-65
2022/01/10 12:46:57;;;;;;;95.73;30.83;;;1.50;99.90;;;;;;5039451;28;20309;-64